Latest Weather Observations for Moomba Airport

IDS60801

Issued at 12:31 am CST Monday 27 June 2016 (issued every 30 minutes, with the page automatically refreshed every 10 minutes)

About weather observations | Map of weather stations | Latest weather observations for SA | Other Formats
Station Details ID: 017123 Name: MOOMBA AIRPORT Lat: -28.10 Lon: 140.20 Height: 37.8 m
Data from the previous 72 hours. | See also: Recent months at Moomba Airport
Date/Time
CST
Temp
°C
App
Temp
°C
Dew
Point
°C
Rel
Hum
%
Delta-T
°C
Wind Press
QNH
hPa
Press
MSL
hPa
Rain since
9am
mm
Dir  Spd
km/h
Gust
km/h
Spd
kts
Gust
kts
27/12:30am 9.5 8.1 9.5 100 0.0 SW 7 9 4 5 1020.3 1020.3 2.8
27/12:00am 9.6 7.8 9.6 100 0.0 SW 9 11 5 6 1020.2 1020.2 2.8
 
Date/Time
CST
Temp
°C
App
Temp
°C
Dew
Point
°C
Rel
Hum
%
Delta-T
°C
Wind Press
QNH
hPa
Press
MSL
hPa
Rain since
9am
mm
Dir  Spd
km/h
Gust
km/h
Spd
kts
Gust
kts
26/11:30pm 9.6 8.2 9.6 100 0.0 SW 7 9 4 5 1020.2 1020.2 2.8
26/11:00pm 9.8 8.5 9.8 100 0.0 SW 7 9 4 5 1020.1 1020.1 2.8
26/10:30pm 9.9 8.6 9.9 100 0.0 SW 7 9 4 5 1019.9 1019.9 2.8
26/10:00pm 10.0 8.7 10.0 100 0.0 SW 7 9 4 5 1019.7 1019.7 2.8
26/09:30pm 10.1 8.8 10.1 100 0.0 SSW 7 11 4 6 1019.5 1019.5 2.8
26/09:00pm 10.2 8.2 10.2 100 0.0 SSW 11 15 6 8 1019.1 1019.1 2.8
26/08:30pm 10.2 8.6 10.2 100 0.0 SW 9 11 5 6 1019.2 1019.2 2.8
26/08:00pm 10.2 9.2 10.2 100 0.0 SSW 6 7 3 4 1018.8 1018.8 2.8
26/07:48pm 10.2 9.0 10.2 100 0.0 SSW 7 9 4 5 1018.7 1018.7 2.8
26/07:44pm 10.2 8.6 10.2 100 0.0 SSW 9 13 5 7 1018.7 1018.7 2.8
26/07:34pm 10.2 8.2 10.2 100 0.0 SW 11 15 6 8 1018.7 1018.7 2.8
26/07:31pm 10.3 8.7 10.3 100 0.0 SW 9 15 5 8 1018.7 1018.7 2.8
26/07:30pm 10.3 8.7 10.3 100 0.0 SW 9 15 5 8 1018.7 1018.7 2.8
26/07:00pm 10.6 9.7 10.6 100 0.0 WSW 6 7 3 4 1018.3 1018.3 2.8
26/06:30pm 10.4 9.2 10.2 99 0.1 WSW 7 9 4 5 1018.0 1018.0 2.8
26/06:00pm 10.4 8.8 10.2 99 0.1 SW 9 9 5 5 1017.5 1017.5 2.8
26/05:31pm 10.5 9.5 10.3 99 0.1 WSW 6 9 3 5 1017.1 1017.1 2.8
26/05:30pm 10.4 9.4 10.2 99 0.1 WSW 6 9 3 5 1017.1 1017.1 2.8
26/05:29pm 10.4 9.4 10.2 99 0.1 WSW 6 7 3 4 1017.1 1017.1 2.8
26/05:16pm 10.4 9.4 10.2 99 0.1 SSW 6 7 3 4 1016.9 1016.9 2.6
26/05:12pm 10.5 9.5 10.3 99 0.1 SSW 6 7 3 4 1016.8 1016.8 2.6
26/05:00pm 10.6 10.0 10.4 99 0.1 SW 4 7 2 4 1016.6 1016.6 2.4
26/04:30pm 10.6 9.6 10.3 98 0.2 SW 6 7 3 4 1016.2 1016.2 2.4
26/04:08pm 10.7 10.8 10.2 97 0.3 CALM 0 0 0 0 1015.8 1015.8 2.2
26/04:00pm 10.7 10.5 10.4 98 0.2 S 2 7 1 4 1015.7 1015.7 2.2
26/03:50pm 10.6 10.7 10.3 98 0.2 CALM 0 0 0 0 1015.6 1015.6 2.2
26/03:31pm 10.7 10.0 10.2 97 0.3 S 4 7 2 4 1015.7 1015.7 2.0
26/03:30pm 10.7 10.0 10.2 97 0.3 SSE 4 7 2 4 1015.7 1015.7 2.0
26/03:20pm 10.7 10.1 10.5 99 0.1 SSE 4 7 2 4 1015.7 1015.7 2.0
26/03:00pm 10.5 10.6 10.3 99 0.1 CALM 0 9 0 5 1016.0 1016.0 2.0
26/02:30pm 10.5 10.6 10.3 99 0.1 CALM 0 6 0 3 1016.0 1016.0 1.6
26/02:27pm 10.6 10.8 10.4 99 0.1 CALM 0 6 0 3 1016.3 1016.3 1.6
26/02:00pm 10.5 9.5 10.3 99 0.1 NNE 6 9 3 5 1016.1 1016.1 1.6
26/01:47pm 10.3 9.2 10.1 99 0.1 NE 6 9 3 5 1016.1 1016.1 1.4
26/01:44pm 10.3 9.6 10.1 99 0.1 NE 4 7 2 4 1016.1 1016.1 1.4
26/01:30pm 10.3 10.0 10.1 99 0.1 N 2 7 1 4 1016.4 1016.4 1.2
26/01:00pm 10.2 9.1 10.1 99 0.1 NNE 6 9 3 5 1016.9 1016.9 1.0
26/12:45pm 10.2 9.1 10.1 99 0.1 NNE 6 9 3 5 1017.1 1017.1 1.0
26/12:30pm 10.1 8.4 10.0 99 0.1 N 9 11 5 6 1017.5 1017.5 1.0
26/12:00pm 10.0 8.3 9.9 99 0.1 NNE 9 11 5 6 1018.1 1018.1 1.0
26/11:30am 9.9 8.6 9.8 99 0.1 NE 7 11 4 6 1018.5 1018.5 1.0
26/11:00am 9.7 8.0 9.7 100 0.0 NE 9 11 5 6 1018.9 1018.9 1.0
26/10:30am 9.5 7.7 9.5 100 0.0 NE 9 11 5 6 1019.4 1019.4 0.8
26/10:00am 9.5 8.3 9.5 100 0.0 NE 6 9 3 5 1019.4 1019.4 0.4
26/09:30am 9.3 7.1 9.3 100 0.0 NE 11 13 6 7 1018.8 1018.8 0.0
26/09:00am 9.3 8.0 9.3 100 0.0 ENE 6 7 3 4 1019.2 1019.2 5.8
26/08:30am 9.1 6.4 9.1 100 0.0 NE 13 17 7 9 1018.9 1018.9 5.4
26/08:00am 9.1 6.8 9.1 100 0.0 NE 11 17 6 9 1018.9 1018.9 5.4
26/07:30am 9.0 7.1 9.0 100 0.0 NE 9 11 5 6 1019.3 1019.3 5.4
26/07:00am 9.0 5.5 8.9 99 0.0 NE 17 20 9 11 1018.6 1018.6 5.4
26/06:30am 9.0 5.6 9.0 100 0.0 NE 17 20 9 11 1018.1 1018.1 5.2
26/06:00am 9.0 5.2 9.0 100 0.0 ENE 19 24 10 13 1018.1 1018.1 5.0
26/05:30am 9.0 5.6 9.0 100 0.0 ENE 17 22 9 12 1018.0 1018.0 4.8
26/05:00am 9.0 6.3 8.9 99 0.0 E 13 17 7 9 1018.6 1018.6 4.6
26/04:30am 9.1 6.8 9.0 99 0.0 ENE 11 15 6 8 1019.1 1019.1 4.0
26/04:00am 9.2 6.9 9.1 99 0.0 ENE 11 15 6 8 1019.1 1019.1 2.4
26/03:30am 9.6 8.1 9.0 96 0.3 E 7 9 4 5 1019.9 1019.9 1.4
26/03:00am 9.8 7.8 8.7 93 0.5 ESE 9 13 5 7 1019.8 1019.8 0.8
26/02:30am 9.9 7.1 8.7 92 0.6 ESE 13 15 7 8 1018.9 1018.9 0.6
26/02:00am 10.1 8.7 9.0 93 0.5 ESE 6 9 3 5 1020.2 1020.2 0.4
26/01:30am 10.1 8.5 8.9 92 0.6 ESE 7 9 4 5 1020.3 1020.3 0.2
26/01:00am 10.0 7.6 8.8 92 0.6 E 11 13 6 7 1019.5 1019.5 0.2
26/12:30am 10.3 8.2 8.4 88 0.9 E 9 11 5 6 1020.0 1020.0 0.0
26/12:00am 10.6 8.1 8.0 84 1.3 E 11 13 6 7 1020.1 1020.1 0.0
 
Date/Time
CST
Temp
°C
App
Temp
°C
Dew
Point
°C
Rel
Hum
%
Delta-T
°C
Wind Press
QNH
hPa
Press
MSL
hPa
Rain since
9am
mm
Dir  Spd
km/h
Gust
km/h
Spd
kts
Gust
kts
25/11:30pm 11.0 8.7 7.5 79 1.7 SE 9 13 5 7 1020.5 1020.5 0.0
25/11:00pm 10.7 8.9 7.9 83 1.4 ESE 7 9 4 5 1020.4 1020.4 0.0
25/10:30pm 10.8 8.6 7.7 81 1.5 E 9 11 5 6 1020.3 1020.3 0.0
25/10:00pm 10.8 8.3 8.0 83 1.4 E 11 13 6 7 1020.2 1020.2 0.0
25/09:30pm 11.1 8.9 7.8 80 1.6 ESE 9 13 5 7 1020.7 1020.7 0.0
25/09:00pm 11.0 8.0 7.7 80 1.6 E 13 15 7 8 1020.0 1020.0 0.0
25/08:30pm 11.4 8.7 7.3 76 2.0 ESE 11 13 6 7 1020.7 1020.7 0.0
25/08:00pm 11.6 10.5 7.1 74 2.2 SE 2 7 1 4 1021.5 1021.5 0.0
25/07:30pm 11.6 11.0 7.5 76 2.0 CALM 0 0 0 0 1021.8 1021.8 0.0
25/07:00pm 11.6 10.9 6.9 73 2.2 CALM 0 0 0 0 1021.0 1021.0 0.0
25/06:30pm 11.4 9.6 7.1 75 2.1 ENE 6 11 3 6 1020.1 1020.1 0.0
25/06:00pm 11.9 9.4 6.4 69 2.6 E 9 11 5 6 1019.8 1019.8 0.0
25/05:30pm 12.2 8.8 6.0 66 2.9 E 13 15 7 8 1019.9 1019.9 0.0
25/05:00pm 12.6 9.1 5.5 62 3.3 E 13 17 7 9 1020.1 1020.1 0.0
25/04:30pm 13.1 9.0 4.5 56 3.9 ENE 15 19 8 10 1020.8 1020.8 0.0
25/04:00pm 13.3 9.2 4.5 55 4.0 E 15 19 8 10 1020.6 1020.6 0.0
25/03:30pm 13.7 10.8 4.6 54 4.2 E 9 17 5 9 1021.1 1021.1 0.0
25/03:00pm 13.7 10.4 4.6 54 4.2 ENE 11 17 6 9 1021.6 1021.6 0.0
25/02:30pm 13.8 10.1 4.4 53 4.3 ENE 13 17 7 9 1021.8 1021.8 0.0
25/02:00pm 14.4 10.6 4.1 50 4.7 ENE 13 19 7 10 1022.0 1022.0 0.0
25/01:30pm 13.5 9.0 4.4 54 4.2 E 17 24 9 13 1021.6 1021.6 0.0
25/01:00pm 13.9 9.5 4.5 53 4.3 E 17 24 9 13 1022.3 1022.3 0.0
25/12:30pm 13.9 9.1 4.5 53 4.3 E 19 24 10 13 1023.1 1023.1 0.0
25/12:00pm 13.9 9.5 4.8 54 4.2 E 17 24 9 13 1024.3 1024.3 0.0
25/11:30am 13.6 8.5 4.2 53 4.3 E 20 28 11 15 1024.8 1024.8 0.0
25/11:00am 13.9 9.3 6.7 62 3.5 E 20 26 11 14 1024.7 1024.7 0.0
25/10:30am 12.9 8.5 7.4 69 2.7 E 20 26 11 14 1024.9 1024.9 0.0
25/10:00am 11.9 7.5 6.6 70 2.5 E 19 22 10 12 1024.9 1024.9 0.0
25/09:30am 10.7 7.3 6.1 73 2.1 E 13 17 7 9 1025.1 1025.1 0.0
25/09:00am 9.1 5.7 6.0 81 1.4 E 13 17 7 9 1024.8 1024.8 0.2
25/08:30am 8.0 5.3 5.5 84 1.1 E 9 11 5 6 1025.0 1025.0 0.2
25/08:00am 6.9 3.8 5.5 91 0.6 ESE 11 13 6 7 1024.4 1024.4 0.2
25/07:30am 5.8 2.7 5.4 97 0.2 ESE 11 13 6 7 1024.1 1024.2 0.2
25/07:00am 4.8 1.1 4.7 99 0.0 ESE 13 13 7 7 1023.7 1023.8 0.2
25/06:30am 4.7 1.4 4.6 99 0.0 E 11 13 6 7 1023.6 1023.7 0.2
25/06:00am 4.7 1.4 4.6 99 0.0 E 11 11 6 6 1023.5 1023.6 0.2
25/05:30am 5.0 1.4 4.9 99 0.0 ESE 13 13 7 7 1023.2 1023.2 0.2
25/05:00am 5.3 1.7 5.0 98 0.1 E 13 13 7 7 1023.1 1023.1 0.2
25/04:30am 5.7 2.1 5.1 96 0.3 ESE 13 15 7 8 1023.1 1023.1 0.2
25/04:00am 6.0 2.4 5.1 94 0.4 ESE 13 15 7 8 1023.2 1023.2 0.2
25/03:30am 6.2 2.6 5.2 93 0.4 ESE 13 15 7 8 1023.3 1023.3 0.2
25/03:00am 6.8 3.4 5.7 93 0.5 ESE 13 15 7 8 1023.4 1023.4 0.2
25/02:30am 6.6 3.5 5.6 93 0.4 ESE 11 13 6 7 1023.6 1023.7 0.2
25/02:00am 6.8 3.3 5.4 91 0.6 ESE 13 15 7 8 1023.7 1023.8 0.2
25/01:30am 7.0 3.9 5.5 90 0.7 ESE 11 13 6 7 1023.8 1023.9 0.2
25/01:00am 7.5 4.8 5.8 89 0.8 ESE 9 13 5 7 1023.5 1023.6 0.2
25/12:30am 7.4 4.4 5.9 90 0.7 ESE 11 13 6 7 1023.4 1023.4 0.2
25/12:00am 7.5 5.2 5.8 89 0.8 ESE 7 9 4 5 1023.4 1023.4 0.2
 
Date/Time
CST
Temp
°C
App
Temp
°C
Dew
Point
°C
Rel
Hum
%
Delta-T
°C
Wind Press
QNH
hPa
Press
MSL
hPa
Rain since
9am
mm
Dir  Spd
km/h
Gust
km/h
Spd
kts
Gust
kts
24/11:30pm 8.5 5.9 6.0 84 1.1 ESE 9 11 5 6 1023.3 1023.3 0.2
24/11:00pm 10.0 6.5 5.6 74 2.0 SE 13 19 7 10 1023.3 1023.3 0.2
24/10:30pm 10.7 7.8 6.5 75 2.0 SSE 11 17 6 9 1023.3 1023.3 0.2
24/10:00pm 9.1 7.2 6.7 85 1.1 SW 6 7 3 4 1023.2 1023.2 0.2
24/09:30pm 10.1 8.1 7.2 82 1.4 SSW 7 9 4 5 1023.2 1023.2 0.2
24/09:00pm 10.9 8.4 6.6 75 2.0 SSW 9 9 5 5 1023.1 1023.1 0.2
24/08:30pm 11.5 9.0 6.6 72 2.3 SW 9 13 5 7 1023.0 1023.0 0.2
24/08:00pm 11.2 9.2 7.3 77 1.9 WSW 7 11 4 6 1022.8 1022.8 0.2
24/07:30pm 11.2 8.9 7.5 78 1.8 WSW 9 9 5 5 1022.6 1022.6 0.2
24/07:00pm 11.5 9.1 6.8 73 2.2 SW 9 11 5 6 1022.5 1022.5 0.2
24/06:30pm 12.1 9.7 6.8 70 2.5 SSW 9 11 5 6 1022.1 1022.1 0.2
24/06:00pm 12.6 9.7 6.6 67 2.9 SSW 11 13 6 7 1021.7 1021.7 0.2
24/05:30pm 13.5 10.1 6.1 61 3.5 SSW 13 17 7 9 1021.4 1021.4 0.2
24/05:00pm 14.2 10.5 6.1 58 3.9 SSW 15 19 8 10 1021.1 1021.1 0.2
24/04:30pm 14.9 10.8 6.2 56 4.2 SW 17 20 9 11 1020.7 1020.7 0.2
24/04:00pm 15.1 10.4 5.9 54 4.4 SSW 20 30 11 16 1020.4 1020.4 0.2
24/03:30pm 15.1 10.7 6.4 56 4.2 WSW 19 26 10 14 1020.2 1020.2 0.2
24/03:00pm 15.4 11.0 6.7 56 4.2 SW 19 28 10 15 1020.0 1020.0 0.2
24/02:30pm 15.6 10.8 7.4 58 4.1 WSW 22 35 12 19 1019.5 1019.5 0.2
24/02:00pm 15.6 10.8 7.4 58 4.1 SW 22 30 12 16 1019.6 1019.6 0.2
24/01:30pm 15.3 10.3 8.1 62 3.6 WSW 24 33 13 18 1020.0 1020.0 0.0
24/01:00pm 14.7 9.8 8.4 66 3.2 SW 24 33 13 18 1020.4 1020.4 0.0
24/12:30pm 14.7 10.5 8.4 66 3.2 SW 20 28 11 15 1020.6 1020.6 0.0
24/12:00pm 14.4 9.8 8.1 66 3.1 SW 22 32 12 17 1021.1 1021.1 0.0
24/11:30am 14.4 9.6 9.0 70 2.7 SW 24 37 13 20 1021.4 1021.4 0.0
24/11:00am 13.9 10.0 9.5 75 2.3 SW 20 28 11 15 1021.5 1021.5 0.0
24/10:30am 13.2 9.3 9.6 79 1.8 WSW 20 26 11 14 1021.4 1021.4 0.0
24/10:00am 12.5 8.7 9.9 84 1.3 WSW 20 28 11 15 1021.4 1021.4 0.0
24/09:30am 11.8 8.1 10.0 89 0.9 WSW 20 26 11 14 1021.3 1021.3 0.0
24/09:00am 11.1 7.5 10.6 97 0.3 WSW 20 24 11 13 1020.7 1020.7 3.6
24/08:30am 10.3 7.1 10.1 99 0.1 WSW 17 22 9 12 1020.1 1020.1 3.6
24/08:00am 9.2 6.2 9.2 100 0.0 WSW 15 19 8 10 1019.5 1019.5 3.6
24/07:30am 7.9 5.3 7.9 100 0.0 W 11 15 6 8 1019.1 1019.1 3.6
24/07:00am 8.0 5.1 8.0 100 0.0 W 13 15 7 8 1018.6 1018.6 3.6
24/06:30am 8.3 5.4 8.3 100 0.0 W 13 15 7 8 1018.2 1018.2 3.6
24/06:00am 8.5 5.7 8.5 100 0.0 WSW 13 15 7 8 1017.8 1017.8 3.6
24/05:30am 8.7 5.5 8.6 99 0.0 WSW 15 17 8 9 1017.3 1017.3 3.6
24/05:00am 8.8 6.0 8.7 99 0.0 W 13 15 7 8 1016.8 1016.8 3.6
24/04:30am 9.3 6.3 9.2 99 0.0 W 15 19 8 10 1016.5 1016.5 3.6
24/04:00am 9.7 6.4 9.6 99 0.0 WSW 17 20 9 11 1016.2 1016.2 3.6
24/03:30am 9.9 6.7 9.8 99 0.1 WSW 17 19 9 10 1016.0 1016.0 3.6
24/03:00am 10.2 7.0 9.9 98 0.2 W 17 20 9 11 1015.8 1015.8 3.6
24/02:30am 10.8 7.2 10.6 99 0.1 WSW 20 28 11 15 1015.7 1015.7 3.6
24/02:00am 10.4 8.1 10.4 100 0.0 WNW 13 15 7 8 1015.4 1015.4 3.6
24/01:30am 11.1 8.2 11.1 100 0.0 WNW 17 20 9 11 1015.2 1015.2 3.6
24/01:00am 11.3 8.1 11.3 100 0.0 WNW 19 20 10 11 1014.9 1014.9 3.6

Other Formats:

Comma delimited format used in spreadsheet applications
http://www.bom.gov.au/fwo/IDS60801/IDS60801.95481.axf

JavaScript Object Notation format (JSON) in row-major order
http://www.bom.gov.au/fwo/IDS60801/IDS60801.95481.json